Gillette, WY

4:41 AM MST on March 06, 2015 (GMT -0700)
RAWS ECHETA WY US | Change Station
CLOSE
Current Station
Personal Weather Station
Location: Gillette, WY
Elevation: 4396 ft
Nearby Weather Stations

Elev 4396 ft 44.47 °N, 105.84 °W | Updated 50 minutes ago

Clear
Clear
31 °F
Feels Like 23 °F
N
9
Wind Variable Wind from South
Gusts 14.0 mph

Today
High -- | Low -- °F
--% Chance of Precip.
Yesterday
High -- | Low -- °F
Precip. -- in
6:31 AM 5:56 PM
Full, 100% visible
Pressure 30.17 in
Visibility 10.0 miles
Clouds Scattered Clouds 7500 ft
Windchill 23 °F
Dew Point 18 °F
Humidity 57%
Rainfall in
Snow Depth Not available.
UV 0 out of 12
Pollen .40 out of 12
Air Quality Not available.
Flu Activity Not available.
METAR KGCC 061053Z AUTO 24012KT 10SM SCT075 01/M09 A3013 RMK AO2 SLP216 T00061089 TSNO

More Conditions Fewer Conditions

Pressure 30.17 in
Visibility 10.0 miles
Clouds Scattered Clouds 7500 ft
Windchill 23 °F
Dew Point 18 °F
Humidity 57%
Rainfall in
Snow Depth Not available.
UV 0 out of 12
Pollen .40 out of 12
Air Quality Not available.
Flu Activity Not available.
METAR KGCC 061053Z AUTO 24012KT 10SM SCT075 01/M09 A3013 RMK AO2 SLP216 T00061089 TSNO

More Conditions Fewer Conditions

10-Day Weather Forecast

Almanac

Astronomy

Mar. 06, 2015 Rise Set
Actual Time
Civil Twilight
Nautical Twilight
Astronomical Twilight
Moon
Length of Visible Light
Length of Day
Tomorrow will be .
, % of the Moon is Illuminated

Today's Extremes

State Highs State Lows

Community

WunderPhotos

Upload Photos

1,803,228 photos uploaded!

WunderBlogs® & News

Nearby

Air Quality

  Air Quality AQ Index Pollutant
Not available.

Snow Depth

Station Depth Elevation

Earthquake Activity

City Distance Mag. Time & Date
Minimum magnitude displayed is 2.5.

Coastal Water Temperatures

Place Temperature

Nearby Weather Stations